sensor_id;sensor_type;location;lat;lon;timestamp;P1;durP1;ratioP1;P2;durP2;ratioP2
83550;SDS011;74617;47.082;15.524;2024-01-16T00:00:33;5.47;;;2.20;;
83550;SDS011;74617;47.082;15.524;2024-01-16T00:02:59;2.80;;;1.63;;
83550;SDS011;74617;47.082;15.524;2024-01-16T00:05:24;4.40;;;2.08;;
83550;SDS011;74617;47.082;15.524;2024-01-16T00:07:49;3.28;;;1.52;;
83550;SDS011;74617;47.082;15.524;2024-01-16T00:10:15;3.97;;;1.98;;
83550;SDS011;74617;47.082;15.524;2024-01-16T00:12:41;4.22;;;2.00;;
83550;SDS011;74617;47.082;15.524;2024-01-16T00:15:07;3.78;;;1.55;;
83550;SDS011;74617;47.082;15.524;2024-01-16T00:17:33;5.15;;;2.30;;
83550;SDS011;74617;47.082;15.524;2024-01-16T00:19:59;3.92;;;1.95;;
83550;SDS011;74617;47.082;15.524;2024-01-16T00:22:26;6.30;;;1.80;;
83550;SDS011;74617;47.082;15.524;2024-01-16T00:24:52;4.65;;;1.95;;
83550;SDS011;74617;47.082;15.524;2024-01-16T00:27:17;4.28;;;2.25;;
83550;SDS011;74617;47.082;15.524;2024-01-16T00:29:43;4.07;;;2.13;;
83550;SDS011;74617;47.082;15.524;2024-01-16T00:32:08;3.45;;;1.63;;
83550;SDS011;74617;47.082;15.524;2024-01-16T00:34:33;3.72;;;1.45;;
83550;SDS011;74617;47.082;15.524;2024-01-16T00:36:59;3.42;;;1.58;;
83550;SDS011;74617;47.082;15.524;2024-01-16T00:39:24;4.32;;;1.50;;
83550;SDS011;74617;47.082;15.524;2024-01-16T00:41:50;4.18;;;1.85;;
83550;SDS011;74617;47.082;15.524;2024-01-16T00:44:15;3.55;;;1.95;;
83550;SDS011;74617;47.082;15.524;2024-01-16T00:46:41;3.05;;;1.42;;
83550;SDS011;74617;47.082;15.524;2024-01-16T00:49:06;3.03;;;1.63;;
83550;SDS011;74617;47.082;15.524;2024-01-16T00:51:33;4.22;;;1.95;;
83550;SDS011;74617;47.082;15.524;2024-01-16T00:53:58;3.55;;;1.55;;
83550;SDS011;74617;47.082;15.524;2024-01-16T00:56:23;2.28;;;1.27;;
83550;SDS011;74617;47.082;15.524;2024-01-16T00:58:51;3.30;;;1.60;;
83550;SDS011;74617;47.082;15.524;2024-01-16T01:01:18;2.80;;;1.42;;
83550;SDS011;74617;47.082;15.524;2024-01-16T01:03:44;2.63;;;1.73;;
83550;SDS011;74617;47.082;15.524;2024-01-16T01:06:09;4.35;;;1.58;;
83550;SDS011;74617;47.082;15.524;2024-01-16T01:08:35;3.28;;;1.70;;
83550;SDS011;74617;47.082;15.524;2024-01-16T01:11:00;3.97;;;2.28;;
83550;SDS011;74617;47.082;15.524;2024-01-16T01:13:26;3.95;;;1.83;;
83550;SDS011;74617;47.082;15.524;2024-01-16T01:15:51;4.10;;;2.00;;
83550;SDS011;74617;47.082;15.524;2024-01-16T01:18:17;3.33;;;1.65;;
83550;SDS011;74617;47.082;15.524;2024-01-16T01:20:42;3.22;;;1.63;;
83550;SDS011;74617;47.082;15.524;2024-01-16T01:23:07;3.67;;;1.77;;
83550;SDS011;74617;47.082;15.524;2024-01-16T01:25:33;2.95;;;1.52;;
83550;SDS011;74617;47.082;15.524;2024-01-16T01:27:58;5.63;;;1.73;;
83550;SDS011;74617;47.082;15.524;2024-01-16T01:30:24;3.00;;;1.35;;
83550;SDS011;74617;47.082;15.524;2024-01-16T01:32:49;1.63;;;0.98;;
83550;SDS011;74617;47.082;15.524;2024-01-16T01:35:16;3.83;;;1.52;;
83550;SDS011;74617;47.082;15.524;2024-01-16T01:40:10;2.47;;;1.35;;
83550;SDS011;74617;47.082;15.524;2024-01-16T01:42:40;4.35;;;1.73;;
83550;SDS011;74617;47.082;15.524;2024-01-16T01:45:06;2.42;;;1.23;;
83550;SDS011;74617;47.082;15.524;2024-01-16T01:47:32;3.75;;;1.75;;
83550;SDS011;74617;47.082;15.524;2024-01-16T01:49:57;2.80;;;1.42;;
83550;SDS011;74617;47.082;15.524;2024-01-16T01:52:24;2.90;;;1.48;;
83550;SDS011;74617;47.082;15.524;2024-01-16T01:54:49;3.83;;;1.77;;
83550;SDS011;74617;47.082;15.524;2024-01-16T01:57:16;2.85;;;1.45;;
83550;SDS011;74617;47.082;15.524;2024-01-16T01:59:43;3.33;;;1.40;;
83550;SDS011;74617;47.082;15.524;2024-01-16T02:02:08;3.85;;;1.40;;
83550;SDS011;74617;47.082;15.524;2024-01-16T02:04:35;3.10;;;1.83;;
83550;SDS011;74617;47.082;15.524;2024-01-16T02:07:01;2.60;;;1.50;;
83550;SDS011;74617;47.082;15.524;2024-01-16T02:09:29;3.13;;;1.42;;
83550;SDS011;74617;47.082;15.524;2024-01-16T02:11:54;3.65;;;1.45;;
83550;SDS011;74617;47.082;15.524;2024-01-16T02:14:19;3.85;;;1.60;;
83550;SDS011;74617;47.082;15.524;2024-01-16T02:16:45;4.35;;;1.73;;
83550;SDS011;74617;47.082;15.524;2024-01-16T02:19:10;4.20;;;1.70;;
83550;SDS011;74617;47.082;15.524;2024-01-16T02:21:39;3.72;;;1.38;;
83550;SDS011;74617;47.082;15.524;2024-01-16T02:24:09;3.50;;;1.55;;
83550;SDS011;74617;47.082;15.524;2024-01-16T02:26:36;2.90;;;1.60;;
83550;SDS011;74617;47.082;15.524;2024-01-16T02:29:02;2.42;;;1.30;;
83550;SDS011;74617;47.082;15.524;2024-01-16T02:31:29;3.22;;;1.13;;
83550;SDS011;74617;47.082;15.524;2024-01-16T02:33:55;3.28;;;1.60;;
83550;SDS011;74617;47.082;15.524;2024-01-16T02:36:21;2.58;;;1.20;;
83550;SDS011;74617;47.082;15.524;2024-01-16T02:38:46;3.10;;;1.38;;
83550;SDS011;74617;47.082;15.524;2024-01-16T02:41:15;2.47;;;1.40;;
83550;SDS011;74617;47.082;15.524;2024-01-16T02:43:42;2.83;;;1.40;;
83550;SDS011;74617;47.082;15.524;2024-01-16T02:46:07;2.63;;;1.23;;
83550;SDS011;74617;47.082;15.524;2024-01-16T02:48:36;2.03;;;1.05;;
83550;SDS011;74617;47.082;15.524;2024-01-16T02:51:02;4.82;;;1.65;;
83550;SDS011;74617;47.082;15.524;2024-01-16T02:53:31;2.63;;;1.30;;
83550;SDS011;74617;47.082;15.524;2024-01-16T02:55:56;2.78;;;1.30;;
83550;SDS011;74617;47.082;15.524;2024-01-16T02:58:25;2.05;;;1.00;;
83550;SDS011;74617;47.082;15.524;2024-01-16T03:00:51;3.60;;;1.50;;
83550;SDS011;74617;47.082;15.524;2024-01-16T03:03:17;2.83;;;1.10;;
83550;SDS011;74617;47.082;15.524;2024-01-16T03:05:44;3.65;;;1.50;;
83550;SDS011;74617;47.082;15.524;2024-01-16T03:08:09;3.42;;;1.23;;
83550;SDS011;74617;47.082;15.524;2024-01-16T03:10:35;3.35;;;1.30;;
83550;SDS011;74617;47.082;15.524;2024-01-16T03:13:01;3.63;;;1.70;;
83550;SDS011;74617;47.082;15.524;2024-01-16T03:15:26;2.92;;;1.45;;
83550;SDS011;74617;47.082;15.524;2024-01-16T03:17:52;2.55;;;1.30;;
83550;SDS011;74617;47.082;15.524;2024-01-16T03:20:17;2.67;;;1.20;;
83550;SDS011;74617;47.082;15.524;2024-01-16T03:22:47;2.63;;;1.20;;
83550;SDS011;74617;47.082;15.524;2024-01-16T03:25:13;3.25;;;1.35;;
83550;SDS011;74617;47.082;15.524;2024-01-16T03:27:39;3.75;;;1.30;;
83550;SDS011;74617;47.082;15.524;2024-01-16T03:30:05;2.70;;;1.17;;
83550;SDS011;74617;47.082;15.524;2024-01-16T03:32:31;2.35;;;1.00;;
83550;SDS011;74617;47.082;15.524;2024-01-16T03:34:57;2.08;;;1.05;;
83550;SDS011;74617;47.082;15.524;2024-01-16T03:37:22;2.00;;;1.02;;
83550;SDS011;74617;47.082;15.524;2024-01-16T03:39:48;3.15;;;1.58;;
83550;SDS011;74617;47.082;15.524;2024-01-16T03:42:15;2.20;;;1.20;;
83550;SDS011;74617;47.082;15.524;2024-01-16T03:44:40;2.70;;;1.40;;
83550;SDS011;74617;47.082;15.524;2024-01-16T03:47:06;2.45;;;1.02;;
83550;SDS011;74617;47.082;15.524;2024-01-16T03:49:32;2.10;;;1.10;;
83550;SDS011;74617;47.082;15.524;2024-01-16T03:51:58;2.85;;;0.98;;
83550;SDS011;74617;47.082;15.524;2024-01-16T03:54:23;2.60;;;1.23;;
83550;SDS011;74617;47.082;15.524;2024-01-16T03:56:49;2.60;;;1.27;;
83550;SDS011;74617;47.082;15.524;2024-01-16T03:59:16;2.90;;;1.10;;
83550;SDS011;74617;47.082;15.524;2024-01-16T04:01:42;3.60;;;1.23;;
83550;SDS011;74617;47.082;15.524;2024-01-16T04:04:09;2.10;;;1.25;;
83550;SDS011;74617;47.082;15.524;2024-01-16T04:06:35;2.47;;;1.17;;
83550;SDS011;74617;47.082;15.524;2024-01-16T04:09:00;2.20;;;1.30;;
83550;SDS011;74617;47.082;15.524;2024-01-16T04:11:26;1.52;;;0.82;;
83550;SDS011;74617;47.082;15.524;2024-01-16T04:13:52;1.58;;;0.88;;
83550;SDS011;74617;47.082;15.524;2024-01-16T04:16:17;2.70;;;1.30;;
83550;SDS011;74617;47.082;15.524;2024-01-16T04:18:43;2.45;;;1.13;;
83550;SDS011;74617;47.082;15.524;2024-01-16T04:21:08;2.95;;;1.38;;
83550;SDS011;74617;47.082;15.524;2024-01-16T04:23:34;2.28;;;0.90;;
83550;SDS011;74617;47.082;15.524;2024-01-16T04:26:00;2.17;;;1.10;;
83550;SDS011;74617;47.082;15.524;2024-01-16T04:28:25;2.72;;;1.40;;
83550;SDS011;74617;47.082;15.524;2024-01-16T04:30:51;1.23;;;0.60;;
83550;SDS011;74617;47.082;15.524;2024-01-16T04:33:17;1.92;;;1.02;;
83550;SDS011;74617;47.082;15.524;2024-01-16T04:35:42;1.70;;;0.80;;
83550;SDS011;74617;47.082;15.524;2024-01-16T04:38:08;1.90;;;0.98;;
83550;SDS011;74617;47.082;15.524;2024-01-16T04:40:33;1.70;;;0.68;;
83550;SDS011;74617;47.082;15.524;2024-01-16T04:42:59;2.90;;;0.90;;
83550;SDS011;74617;47.082;15.524;2024-01-16T04:45:24;1.42;;;0.77;;
83550;SDS011;74617;47.082;15.524;2024-01-16T04:47:50;2.08;;;0.63;;
83550;SDS011;74617;47.082;15.524;2024-01-16T04:50:15;3.45;;;1.45;;
83550;SDS011;74617;47.082;15.524;2024-01-16T04:52:41;3.78;;;1.38;;
83550;SDS011;74617;47.082;15.524;2024-01-16T04:55:06;1.85;;;0.90;;
83550;SDS011;74617;47.082;15.524;2024-01-16T04:57:32;4.05;;;1.13;;
83550;SDS011;74617;47.082;15.524;2024-01-16T04:59:58;2.35;;;1.00;;
83550;SDS011;74617;47.082;15.524;2024-01-16T05:02:23;1.63;;;0.70;;
83550;SDS011;74617;47.082;15.524;2024-01-16T05:04:49;3.65;;;0.80;;
83550;SDS011;74617;47.082;15.524;2024-01-16T05:07:17;1.95;;;0.90;;
83550;SDS011;74617;47.082;15.524;2024-01-16T05:09:45;1.70;;;0.90;;
83550;SDS011;74617;47.082;15.524;2024-01-16T05:12:11;2.17;;;0.90;;
83550;SDS011;74617;47.082;15.524;2024-01-16T05:14:36;4.25;;;1.40;;
83550;SDS011;74617;47.082;15.524;2024-01-16T05:17:02;1.60;;;0.85;;
83550;SDS011;74617;47.082;15.524;2024-01-16T05:19:27;7.38;;;0.90;;
83550;SDS011;74617;47.082;15.524;2024-01-16T05:21:52;1.25;;;0.82;;
83550;SDS011;74617;47.082;15.524;2024-01-16T05:24:18;1.55;;;0.80;;
83550;SDS011;74617;47.082;15.524;2024-01-16T05:26:43;2.85;;;0.85;;
83550;SDS011;74617;47.082;15.524;2024-01-16T05:29:09;2.92;;;0.75;;
83550;SDS011;74617;47.082;15.524;2024-01-16T05:31:39;1.67;;;0.65;;
83550;SDS011;74617;47.082;15.524;2024-01-16T05:34:05;1.48;;;0.60;;
83550;SDS011;74617;47.082;15.524;2024-01-16T05:36:30;2.80;;;0.80;;
83550;SDS011;74617;47.082;15.524;2024-01-16T05:38:55;1.02;;;0.55;;
83550;SDS011;74617;47.082;15.524;2024-01-16T05:41:21;2.83;;;0.82;;
83550;SDS011;74617;47.082;15.524;2024-01-16T05:43:46;0.85;;;0.63;;
83550;SDS011;74617;47.082;15.524;2024-01-16T05:46:12;1.98;;;0.90;;
83550;SDS011;74617;47.082;15.524;2024-01-16T05:48:38;1.80;;;0.80;;
83550;SDS011;74617;47.082;15.524;2024-01-16T05:51:03;1.98;;;0.63;;
83550;SDS011;74617;47.082;15.524;2024-01-16T05:53:29;2.00;;;0.85;;
83550;SDS011;74617;47.082;15.524;2024-01-16T05:55:55;1.52;;;0.70;;
83550;SDS011;74617;47.082;15.524;2024-01-16T05:58:21;1.27;;;0.75;;
83550;SDS011;74617;47.082;15.524;2024-01-16T06:00:47;1.73;;;0.70;;
83550;SDS011;74617;47.082;15.524;2024-01-16T06:03:12;2.70;;;0.93;;
83550;SDS011;74617;47.082;15.524;2024-01-16T06:05:38;1.48;;;0.63;;
83550;SDS011;74617;47.082;15.524;2024-01-16T06:08:03;1.00;;;0.68;;
83550;SDS011;74617;47.082;15.524;2024-01-16T06:10:29;2.65;;;0.95;;
83550;SDS011;74617;47.082;15.524;2024-01-16T06:12:54;2.42;;;0.82;;
83550;SDS011;74617;47.082;15.524;2024-01-16T06:15:19;1.80;;;0.80;;
83550;SDS011;74617;47.082;15.524;2024-01-16T06:17:45;1.33;;;0.68;;
83550;SDS011;74617;47.082;15.524;2024-01-16T06:20:10;2.53;;;0.80;;
83550;SDS011;74617;47.082;15.524;2024-01-16T06:22:36;1.30;;;0.60;;
83550;SDS011;74617;47.082;15.524;2024-01-16T06:25:01;1.75;;;0.70;;
83550;SDS011;74617;47.082;15.524;2024-01-16T06:27:27;1.77;;;0.73;;
83550;SDS011;74617;47.082;15.524;2024-01-16T06:29:52;2.92;;;1.00;;
83550;SDS011;74617;47.082;15.524;2024-01-16T06:32:18;1.90;;;0.70;;
83550;SDS011;74617;47.082;15.524;2024-01-16T06:34:43;13.00;;;3.78;;
83550;SDS011;74617;47.082;15.524;2024-01-16T06:37:09;24.02;;;6.63;;
83550;SDS011;74617;47.082;15.524;2024-01-16T06:39:34;16.77;;;5.25;;
83550;SDS011;74617;47.082;15.524;2024-01-16T06:42:00;12.25;;;3.47;;
83550;SDS011;74617;47.082;15.524;2024-01-16T06:44:26;10.20;;;2.65;;
83550;SDS011;74617;47.082;15.524;2024-01-16T06:46:51;8.85;;;2.80;;
83550;SDS011;74617;47.082;15.524;2024-01-16T06:49:16;8.85;;;2.97;;
83550;SDS011;74617;47.082;15.524;2024-01-16T06:51:42;7.40;;;2.05;;
83550;SDS011;74617;47.082;15.524;2024-01-16T06:54:07;6.07;;;2.60;;
83550;SDS011;74617;47.082;15.524;2024-01-16T06:56:33;5.40;;;1.85;;
83550;SDS011;74617;47.082;15.524;2024-01-16T06:58:58;7.95;;;1.70;;
83550;SDS011;74617;47.082;15.524;2024-01-16T07:01:24;8.35;;;1.90;;
83550;SDS011;74617;47.082;15.524;2024-01-16T07:03:49;4.07;;;1.48;;
83550;SDS011;74617;47.082;15.524;2024-01-16T07:06:15;7.97;;;1.60;;
83550;SDS011;74617;47.082;15.524;2024-01-16T07:08:40;2.95;;;1.63;;
83550;SDS011;74617;47.082;15.524;2024-01-16T07:11:06;7.03;;;1.60;;
83550;SDS011;74617;47.082;15.524;2024-01-16T07:13:33;7.45;;;1.75;;
83550;SDS011;74617;47.082;15.524;2024-01-16T07:16:00;2.58;;;1.33;;
83550;SDS011;74617;47.082;15.524;2024-01-16T07:18:27;4.05;;;1.40;;
83550;SDS011;74617;47.082;15.524;2024-01-16T07:20:53;4.05;;;1.02;;
83550;SDS011;74617;47.082;15.524;2024-01-16T07:23:19;2.58;;;1.02;;
83550;SDS011;74617;47.082;15.524;2024-01-16T07:25:44;3.20;;;1.35;;
83550;SDS011;74617;47.082;15.524;2024-01-16T07:28:09;6.05;;;1.10;;
83550;SDS011;74617;47.082;15.524;2024-01-16T07:30:35;5.53;;;1.38;;
83550;SDS011;74617;47.082;15.524;2024-01-16T07:33:01;2.50;;;1.00;;
83550;SDS011;74617;47.082;15.524;2024-01-16T07:35:27;4.13;;;1.23;;
83550;SDS011;74617;47.082;15.524;2024-01-16T07:37:53;5.75;;;1.63;;
83550;SDS011;74617;47.082;15.524;2024-01-16T07:40:18;4.00;;;1.20;;
83550;SDS011;74617;47.082;15.524;2024-01-16T07:42:43;6.43;;;1.30;;
83550;SDS011;74617;47.082;15.524;2024-01-16T07:45:09;4.00;;;1.52;;
83550;SDS011;74617;47.082;15.524;2024-01-16T07:47:34;7.78;;;2.20;;
83550;SDS011;74617;47.082;15.524;2024-01-16T07:50:01;10.43;;;1.60;;
83550;SDS011;74617;47.082;15.524;2024-01-16T07:52:30;4.28;;;1.35;;
83550;SDS011;74617;47.082;15.524;2024-01-16T07:54:55;6.15;;;1.92;;
83550;SDS011;74617;47.082;15.524;2024-01-16T07:57:20;3.90;;;1.48;;
83550;SDS011;74617;47.082;15.524;2024-01-16T07:59:46;6.38;;;1.35;;
83550;SDS011;74617;47.082;15.524;2024-01-16T08:02:12;9.13;;;1.80;;
83550;SDS011;74617;47.082;15.524;2024-01-16T08:04:37;6.97;;;2.03;;
83550;SDS011;74617;47.082;15.524;2024-01-16T08:07:03;6.57;;;1.65;;
83550;SDS011;74617;47.082;15.524;2024-01-16T08:09:28;8.88;;;1.80;;
83550;SDS011;74617;47.082;15.524;2024-01-16T08:11:54;5.25;;;1.58;;
83550;SDS011;74617;47.082;15.524;2024-01-16T08:14:19;5.35;;;1.73;;
83550;SDS011;74617;47.082;15.524;2024-01-16T08:16:45;6.60;;;1.60;;
83550;SDS011;74617;47.082;15.524;2024-01-16T08:19:10;3.10;;;1.25;;
83550;SDS011;74617;47.082;15.524;2024-01-16T08:21:35;4.80;;;1.40;;
83550;SDS011;74617;47.082;15.524;2024-01-16T08:24:01;7.38;;;1.83;;
83550;SDS011;74617;47.082;15.524;2024-01-16T08:26:27;6.20;;;1.63;;
83550;SDS011;74617;47.082;15.524;2024-01-16T08:28:53;5.22;;;1.50;;
83550;SDS011;74617;47.082;15.524;2024-01-16T08:31:19;7.22;;;1.60;;
83550;SDS011;74617;47.082;15.524;2024-01-16T08:33:44;3.72;;;1.42;;
83550;SDS011;74617;47.082;15.524;2024-01-16T08:36:10;7.75;;;1.95;;
83550;SDS011;74617;47.082;15.524;2024-01-16T08:38:36;4.55;;;1.80;;
83550;SDS011;74617;47.082;15.524;2024-01-16T08:41:02;4.35;;;1.40;;
83550;SDS011;74617;47.082;15.524;2024-01-16T08:43:31;4.38;;;1.40;;
83550;SDS011;74617;47.082;15.524;2024-01-16T08:45:56;7.85;;;1.45;;
83550;SDS011;74617;47.082;15.524;2024-01-16T08:48:22;6.95;;;1.77;;
83550;SDS011;74617;47.082;15.524;2024-01-16T08:50:47;3.03;;;1.58;;
83550;SDS011;74617;47.082;15.524;2024-01-16T08:53:12;4.53;;;1.30;;
83550;SDS011;74617;47.082;15.524;2024-01-16T08:55:38;2.17;;;1.02;;
83550;SDS011;74617;47.082;15.524;2024-01-16T08:58:03;3.75;;;1.20;;
83550;SDS011;74617;47.082;15.524;2024-01-16T09:00:29;6.13;;;1.60;;
83550;SDS011;74617;47.082;15.524;2024-01-16T09:02:54;4.90;;;1.35;;
83550;SDS011;74617;47.082;15.524;2024-01-16T09:05:19;5.00;;;1.20;;
83550;SDS011;74617;47.082;15.524;2024-01-16T09:07:50;6.93;;;1.30;;
83550;SDS011;74617;47.082;15.524;2024-01-16T09:10:15;4.05;;;1.65;;
83550;SDS011;74617;47.082;15.524;2024-01-16T09:12:42;7.10;;;1.50;;
83550;SDS011;74617;47.082;15.524;2024-01-16T09:15:07;6.10;;;1.75;;
83550;SDS011;74617;47.082;15.524;2024-01-16T09:17:33;6.40;;;1.33;;
83550;SDS011;74617;47.082;15.524;2024-01-16T09:19:58;5.15;;;1.77;;
83550;SDS011;74617;47.082;15.524;2024-01-16T09:22:24;5.57;;;1.65;;
83550;SDS011;74617;47.082;15.524;2024-01-16T09:24:49;7.38;;;1.75;;
83550;SDS011;74617;47.082;15.524;2024-01-16T09:27:15;4.47;;;1.45;;
83550;SDS011;74617;47.082;15.524;2024-01-16T09:29:41;5.47;;;1.85;;
83550;SDS011;74617;47.082;15.524;2024-01-16T09:32:07;5.38;;;1.40;;
83550;SDS011;74617;47.082;15.524;2024-01-16T09:34:32;6.13;;;2.00;;
83550;SDS011;74617;47.082;15.524;2024-01-16T09:36:58;5.28;;;1.67;;
83550;SDS011;74617;47.082;15.524;2024-01-16T09:39:26;5.28;;;1.40;;
83550;SDS011;74617;47.082;15.524;2024-01-16T09:41:51;5.32;;;1.52;;
83550;SDS011;74617;47.082;15.524;2024-01-16T09:44:17;5.70;;;2.08;;
83550;SDS011;74617;47.082;15.524;2024-01-16T09:46:43;3.10;;;1.25;;
83550;SDS011;74617;47.082;15.524;2024-01-16T09:49:12;4.65;;;1.65;;
83550;SDS011;74617;47.082;15.524;2024-01-16T09:51:39;5.18;;;1.35;;
83550;SDS011;74617;47.082;15.524;2024-01-16T09:54:05;4.55;;;1.17;;
83550;SDS011;74617;47.082;15.524;2024-01-16T09:56:34;5.10;;;1.42;;
83550;SDS011;74617;47.082;15.524;2024-01-16T09:59:05;4.30;;;1.33;;
83550;SDS011;74617;47.082;15.524;2024-01-16T10:01:31;6.38;;;1.63;;
83550;SDS011;74617;47.082;15.524;2024-01-16T10:03:58;5.22;;;2.05;;
83550;SDS011;74617;47.082;15.524;2024-01-16T10:06:24;6.88;;;1.50;;
83550;SDS011;74617;47.082;15.524;2024-01-16T10:08:52;5.47;;;1.40;;
83550;SDS011;74617;47.082;15.524;2024-01-16T10:11:18;5.43;;;2.03;;
83550;SDS011;74617;47.082;15.524;2024-01-16T10:13:46;9.40;;;2.10;;
83550;SDS011;74617;47.082;15.524;2024-01-16T10:16:12;6.35;;;1.77;;
83550;SDS011;74617;47.082;15.524;2024-01-16T10:18:38;5.88;;;1.50;;
83550;SDS011;74617;47.082;15.524;2024-01-16T10:21:03;7.47;;;2.25;;
83550;SDS011;74617;47.082;15.524;2024-01-16T10:23:30;8.93;;;1.98;;
83550;SDS011;74617;47.082;15.524;2024-01-16T10:28:35;4.57;;;1.80;;
83550;SDS011;74617;47.082;15.524;2024-01-16T10:31:05;4.18;;;1.48;;
83550;SDS011;74617;47.082;15.524;2024-01-16T10:33:35;5.00;;;1.77;;
83550;SDS011;74617;47.082;15.524;2024-01-16T10:36:10;7.38;;;1.40;;
83550;SDS011;74617;47.082;15.524;2024-01-16T10:38:37;7.13;;;1.30;;
83550;SDS011;74617;47.082;15.524;2024-01-16T10:41:25;5.85;;;1.95;;
83550;SDS011;74617;47.082;15.524;2024-01-16T10:44:03;3.15;;;1.40;;
83550;SDS011;74617;47.082;15.524;2024-01-16T10:46:29;5.65;;;1.70;;
83550;SDS011;74617;47.082;15.524;2024-01-16T10:48:58;6.53;;;1.95;;
83550;SDS011;74617;47.082;15.524;2024-01-16T10:51:27;4.40;;;1.65;;
83550;SDS011;74617;47.082;15.524;2024-01-16T10:54:02;3.75;;;1.27;;
83550;SDS011;74617;47.082;15.524;2024-01-16T10:56:33;6.05;;;1.70;;
83550;SDS011;74617;47.082;15.524;2024-01-16T11:01:40;3.90;;;1.25;;
83550;SDS011;74617;47.082;15.524;2024-01-16T11:04:09;4.53;;;1.05;;
83550;SDS011;74617;47.082;15.524;2024-01-16T11:06:36;4.47;;;1.33;;
83550;SDS011;74617;47.082;15.524;2024-01-16T11:09:02;3.75;;;1.13;;
83550;SDS011;74617;47.082;15.524;2024-01-16T11:11:28;3.80;;;1.10;;
83550;SDS011;74617;47.082;15.524;2024-01-16T11:13:54;6.85;;;1.55;;
83550;SDS011;74617;47.082;15.524;2024-01-16T11:16:20;3.60;;;1.10;;
83550;SDS011;74617;47.082;15.524;2024-01-16T11:18:47;4.20;;;1.23;;
83550;SDS011;74617;47.082;15.524;2024-01-16T11:21:14;2.80;;;1.00;;
83550;SDS011;74617;47.082;15.524;2024-01-16T11:23:41;4.70;;;1.17;;
83550;SDS011;74617;47.082;15.524;2024-01-16T11:28:51;3.03;;;0.93;;
83550;SDS011;74617;47.082;15.524;2024-01-16T11:33:53;5.00;;;1.17;;
83550;SDS011;74617;47.082;15.524;2024-01-16T11:39:19;2.88;;;0.90;;
83550;SDS011;74617;47.082;15.524;2024-01-16T11:41:54;3.95;;;1.38;;
83550;SDS011;74617;47.082;15.524;2024-01-16T11:44:39;2.95;;;0.93;;
83550;SDS011;74617;47.082;15.524;2024-01-16T11:47:17;2.20;;;1.02;;
83550;SDS011;74617;47.082;15.524;2024-01-16T11:49:44;2.17;;;1.10;;
83550;SDS011;74617;47.082;15.524;2024-01-16T11:52:11;2.42;;;1.05;;
83550;SDS011;74617;47.082;15.524;2024-01-16T11:54:38;1.80;;;0.70;;
83550;SDS011;74617;47.082;15.524;2024-01-16T11:59:57;2.85;;;0.98;;
83550;SDS011;74617;47.082;15.524;2024-01-16T12:02:52;3.15;;;1.55;;
83550;SDS011;74617;47.082;15.524;2024-01-16T12:05:20;3.65;;;1.00;;
83550;SDS011;74617;47.082;15.524;2024-01-16T12:07:50;4.07;;;1.35;;
83550;SDS011;74617;47.082;15.524;2024-01-16T12:10:26;2.40;;;1.05;;
83550;SDS011;74617;47.082;15.524;2024-01-16T12:12:57;4.03;;;1.42;;
83550;SDS011;74617;47.082;15.524;2024-01-16T12:15:24;2.47;;;0.98;;
83550;SDS011;74617;47.082;15.524;2024-01-16T12:20:21;2.83;;;1.20;;
83550;SDS011;74617;47.082;15.524;2024-01-16T12:22:54;4.43;;;1.30;;
83550;SDS011;74617;47.082;15.524;2024-01-16T12:25:24;1.45;;;0.70;;
83550;SDS011;74617;47.082;15.524;2024-01-16T12:30:26;3.22;;;1.23;;
83550;SDS011;74617;47.082;15.524;2024-01-16T12:33:14;1.92;;;0.93;;
83550;SDS011;74617;47.082;15.524;2024-01-16T12:35:42;1.90;;;0.80;;
83550;SDS011;74617;47.082;15.524;2024-01-16T12:38:10;5.68;;;1.33;;
83550;SDS011;74617;47.082;15.524;2024-01-16T12:40:42;3.97;;;1.88;;
83550;SDS011;74617;47.082;15.524;2024-01-16T12:43:11;3.00;;;1.58;;
83550;SDS011;74617;47.082;15.524;2024-01-16T12:45:37;2.40;;;0.85;;
83550;SDS011;74617;47.082;15.524;2024-01-16T12:48:02;3.58;;;1.23;;
83550;SDS011;74617;47.082;15.524;2024-01-16T12:50:31;3.33;;;1.25;;
83550;SDS011;74617;47.082;15.524;2024-01-16T12:53:04;2.75;;;1.10;;
83550;SDS011;74617;47.082;15.524;2024-01-16T12:55:31;3.33;;;1.42;;
83550;SDS011;74617;47.082;15.524;2024-01-16T13:00:39;3.33;;;1.02;;
83550;SDS011;74617;47.082;15.524;2024-01-16T13:03:07;3.95;;;1.00;;
83550;SDS011;74617;47.082;15.524;2024-01-16T13:05:34;2.30;;;0.90;;
83550;SDS011;74617;47.082;15.524;2024-01-16T13:08:00;4.35;;;1.13;;
83550;SDS011;74617;47.082;15.524;2024-01-16T13:10:28;2.85;;;1.50;;
83550;SDS011;74617;47.082;15.524;2024-01-16T13:13:14;2.70;;;1.40;;
83550;SDS011;74617;47.082;15.524;2024-01-16T13:15:41;2.78;;;1.05;;
83550;SDS011;74617;47.082;15.524;2024-01-16T13:18:21;3.25;;;1.27;;
83550;SDS011;74617;47.082;15.524;2024-01-16T13:20:49;2.70;;;1.00;;
83550;SDS011;74617;47.082;15.524;2024-01-16T13:23:15;3.25;;;1.17;;
83550;SDS011;74617;47.082;15.524;2024-01-16T13:25:42;4.05;;;1.40;;
83550;SDS011;74617;47.082;15.524;2024-01-16T13:30:35;4.43;;;1.30;;
83550;SDS011;74617;47.082;15.524;2024-01-16T13:33:01;2.90;;;1.10;;
83550;SDS011;74617;47.082;15.524;2024-01-16T13:35:27;2.60;;;1.15;;
83550;SDS011;74617;47.082;15.524;2024-01-16T13:37:53;3.55;;;1.25;;
83550;SDS011;74617;47.082;15.524;2024-01-16T13:40:18;3.30;;;1.25;;
83550;SDS011;74617;47.082;15.524;2024-01-16T13:42:44;3.47;;;1.35;;
83550;SDS011;74617;47.082;15.524;2024-01-16T13:45:10;3.42;;;1.20;;
83550;SDS011;74617;47.082;15.524;2024-01-16T13:47:38;4.20;;;1.02;;
83550;SDS011;74617;47.082;15.524;2024-01-16T13:50:08;2.58;;;1.23;;
83550;SDS011;74617;47.082;15.524;2024-01-16T13:52:34;6.25;;;1.20;;
83550;SDS011;74617;47.082;15.524;2024-01-16T13:55:00;2.78;;;1.10;;
83550;SDS011;74617;47.082;15.524;2024-01-16T13:57:30;3.25;;;1.27;;
83550;SDS011;74617;47.082;15.524;2024-01-16T14:00:00;1.90;;;0.93;;
83550;SDS011;74617;47.082;15.524;2024-01-16T14:02:27;4.18;;;1.35;;
83550;SDS011;74617;47.082;15.524;2024-01-16T14:04:53;3.03;;;1.27;;
83550;SDS011;74617;47.082;15.524;2024-01-16T14:07:18;2.33;;;1.00;;
83550;SDS011;74617;47.082;15.524;2024-01-16T14:09:44;4.68;;;1.33;;
83550;SDS011;74617;47.082;15.524;2024-01-16T14:12:09;2.40;;;1.08;;
83550;SDS011;74617;47.082;15.524;2024-01-16T14:14:36;3.05;;;1.02;;
83550;SDS011;74617;47.082;15.524;2024-01-16T14:17:03;3.15;;;1.40;;
83550;SDS011;74617;47.082;15.524;2024-01-16T14:19:28;2.60;;;1.15;;
83550;SDS011;74617;47.082;15.524;2024-01-16T14:21:55;1.75;;;1.05;;
83550;SDS011;74617;47.082;15.524;2024-01-16T14:24:21;3.05;;;1.08;;
83550;SDS011;74617;47.082;15.524;2024-01-16T14:26:46;3.58;;;1.27;;
83550;SDS011;74617;47.082;15.524;2024-01-16T14:29:12;2.50;;;1.20;;
83550;SDS011;74617;47.082;15.524;2024-01-16T14:31:38;4.30;;;1.23;;
83550;SDS011;74617;47.082;15.524;2024-01-16T14:34:07;3.03;;;1.15;;
83550;SDS011;74617;47.082;15.524;2024-01-16T14:36:32;2.75;;;1.20;;
83550;SDS011;74617;47.082;15.524;2024-01-16T14:38:58;1.80;;;0.90;;
83550;SDS011;74617;47.082;15.524;2024-01-16T14:41:23;3.47;;;0.93;;
83550;SDS011;74617;47.082;15.524;2024-01-16T14:43:48;3.08;;;1.02;;
83550;SDS011;74617;47.082;15.524;2024-01-16T14:46:14;3.60;;;1.50;;
83550;SDS011;74617;47.082;15.524;2024-01-16T14:48:44;3.10;;;1.20;;
83550;SDS011;74617;47.082;15.524;2024-01-16T14:51:10;3.28;;;1.15;;
83550;SDS011;74617;47.082;15.524;2024-01-16T14:53:36;3.10;;;1.33;;
83550;SDS011;74617;47.082;15.524;2024-01-16T14:56:02;3.63;;;1.40;;
83550;SDS011;74617;47.082;15.524;2024-01-16T14:58:28;3.63;;;1.30;;